createdAt,value
2022-08-02T00:00:40.512Z,79.20
2022-08-02T00:03:10.968Z,79.12
2022-08-02T00:05:39.051Z,78.90
2022-08-02T00:08:08.153Z,78.86
2022-08-02T00:10:35.918Z,78.75
2022-08-02T00:13:03.899Z,78.73
2022-08-02T00:15:31.646Z,78.57
2022-08-02T00:17:59.386Z,78.47
2022-08-02T00:20:27.143Z,78.57
2022-08-02T00:22:54.973Z,78.39
2022-08-02T00:25:22.789Z,78.38
2022-08-02T00:27:50.543Z,78.28
2022-08-02T00:30:18.266Z,78.24
2022-08-02T00:32:45.967Z,77.87
2022-08-02T00:35:13.722Z,78.47
2022-08-02T00:37:42.064Z,78.72
2022-08-02T00:40:11.180Z,78.69
2022-08-02T00:42:40.161Z,78.90
2022-08-02T00:45:08.719Z,78.68
2022-08-02T00:47:36.617Z,78.63
2022-08-02T00:50:04.781Z,78.60
2022-08-02T00:52:32.485Z,78.59
2022-08-02T00:55:00.201Z,78.58
2022-08-02T00:57:27.965Z,78.64
2022-08-02T00:59:55.723Z,78.60
2022-08-02T01:02:23.479Z,78.64
2022-08-02T01:04:51.241Z,78.62
2022-08-02T01:07:19.072Z,78.60
2022-08-02T01:09:47.023Z,78.68
2022-08-02T01:12:15.170Z,78.72
2022-08-02T01:14:47.089Z,78.70
2022-08-02T01:17:22.354Z,78.68
2022-08-02T01:20:15.125Z,78.74
2022-08-02T01:23:09.623Z,78.78
2022-08-02T01:26:19.438Z,78.70
2022-08-02T01:28:53.674Z,78.55
2022-08-02T01:31:43.159Z,78.55
2022-08-02T01:34:30.850Z,78.58
2022-08-02T01:37:16.085Z,78.62
2022-08-02T01:39:45.894Z,78.64
2022-08-02T01:42:15.371Z,78.59
2022-08-02T01:44:44.410Z,78.78
2022-08-02T01:47:19.698Z,78.84
2022-08-02T01:49:53.071Z,78.92
2022-08-02T01:52:22.312Z,78.95
2022-08-02T01:54:56.995Z,79.04
2022-08-02T01:57:27.947Z,79.08
2022-08-02T02:00:01.600Z,79.27
2022-08-02T02:02:32.447Z,79.46
2022-08-02T02:05:02.491Z,79.44
2022-08-02T02:07:33.763Z,79.35
2022-08-02T02:10:03.634Z,79.31
2022-08-02T02:12:35.009Z,79.31
2022-08-02T02:15:04.302Z,79.31
2022-08-02T02:17:52.976Z,79.29
2022-08-02T02:20:22.321Z,79.32
2022-08-02T02:22:50.434Z,79.33
2022-08-02T02:25:24.979Z,79.38
2022-08-02T02:28:30.666Z,79.50
2022-08-02T02:31:11.893Z,79.56
2022-08-02T02:34:14.984Z,79.47
2022-08-02T02:36:52.422Z,79.60
2022-08-02T02:39:27.146Z,80.06
2022-08-02T02:41:58.860Z,80.17
2022-08-02T02:44:27.118Z,80.30
2022-08-02T02:46:56.289Z,80.12
2022-08-02T02:49:26.140Z,80.48
2022-08-02T02:51:55.919Z,80.66
2022-08-02T02:54:30.144Z,80.65
2022-08-02T02:57:05.152Z,80.81
2022-08-02T02:59:34.736Z,80.99
2022-08-02T03:02:04.958Z,81.61
2022-08-02T03:04:55.471Z,82.46
2022-08-02T03:07:23.802Z,82.89
2022-08-02T03:09:54.110Z,82.74
2022-08-02T03:12:30.167Z,82.62
2022-08-02T03:15:05.544Z,82.51
2022-08-02T03:17:45.596Z,82.44
2022-08-02T03:20:15.810Z,82.48
2022-08-02T03:22:45.223Z,82.55
2022-08-02T03:25:14.867Z,82.96
2022-08-02T03:27:42.740Z,82.73
2022-08-02T03:30:13.368Z,82.63
2022-08-02T03:32:45.044Z,82.61
2022-08-02T03:35:21.296Z,82.59
2022-08-02T03:37:54.490Z,82.65
2022-08-02T03:40:23.280Z,82.74
2022-08-02T03:42:51.579Z,82.79
2022-08-02T03:45:20.227Z,82.71
2022-08-02T03:47:48.278Z,82.62
2022-08-02T03:50:16.638Z,82.58
2022-08-02T03:52:47.673Z,82.55
2022-08-02T03:55:15.498Z,82.75
2022-08-02T03:57:43.680Z,82.75
2022-08-02T04:00:18.205Z,82.94
2022-08-02T04:02:46.377Z,82.92
2022-08-02T04:05:14.992Z,82.83
2022-08-02T04:08:33.657Z,82.83
2022-08-02T04:10:31.791Z,82.87
2022-08-02T04:12:59.624Z,82.86
2022-08-02T04:15:27.357Z,82.91
2022-08-02T04:17:59.668Z,82.95
2022-08-02T04:20:33.761Z,82.95
2022-08-02T04:23:10.591Z,82.84
2022-08-02T04:25:40.487Z,82.41
2022-08-02T04:28:16.527Z,82.39
2022-08-02T04:30:47.645Z,82.15
2022-08-02T04:33:16.592Z,82.26
2022-08-02T04:35:45.043Z,82.71
2022-08-02T04:38:14.909Z,83.02
2022-08-02T04:40:51.934Z,82.70
2022-08-02T04:43:20.247Z,83.05
2022-08-02T04:45:54.591Z,83.43
2022-08-02T04:48:22.917Z,83.26
2022-08-02T04:50:51.101Z,83.32
2022-08-02T04:53:19.077Z,83.37
2022-08-02T04:55:47.095Z,83.39
2022-08-02T04:58:38.778Z,83.47
2022-08-02T05:01:02.916Z,83.57
2022-08-02T05:03:30.775Z,83.59
2022-08-02T05:06:00.687Z,83.60
2022-08-02T05:08:28.496Z,83.60
2022-08-02T05:10:56.333Z,83.57
2022-08-02T05:13:24.055Z,83.70
2022-08-02T05:15:51.799Z,83.86
2022-08-02T05:18:19.783Z,84.09
2022-08-02T05:20:47.586Z,84.10
2022-08-02T05:23:16.519Z,83.88
2022-08-02T05:25:44.263Z,83.74
2022-08-02T05:28:12.057Z,83.67
2022-08-02T05:30:40.591Z,83.68
2022-08-02T05:33:08.578Z,83.65
2022-08-02T05:35:36.461Z,83.70
2022-08-02T05:38:04.505Z,83.59
2022-08-02T05:40:32.448Z,83.51
2022-08-02T05:43:00.167Z,83.48
2022-08-02T05:45:28.348Z,83.26
2022-08-02T05:47:56.142Z,83.12
2022-08-02T05:50:24.316Z,82.89
2022-08-02T05:53:00.480Z,82.79
2022-08-02T05:55:35.194Z,82.70
2022-08-02T05:58:13.256Z,82.56
2022-08-02T06:00:42.860Z,82.47
2022-08-02T06:03:32.557Z,82.33
2022-08-02T06:06:05.952Z,82.13
2022-08-02T06:08:42.508Z,81.98
2022-08-02T06:11:21.463Z,81.74
2022-08-02T06:13:49.365Z,81.52
2022-08-02T06:16:18.040Z,81.22
2022-08-02T06:19:01.183Z,81.02
2022-08-02T06:22:32.181Z,80.84
2022-08-02T06:24:19.871Z,80.76
2022-08-02T06:26:52.743Z,80.59
2022-08-02T06:29:23.241Z,80.31
2022-08-02T06:31:53.214Z,80.09
2022-08-02T06:34:21.233Z,79.82
2022-08-02T06:37:09.019Z,79.74
2022-08-02T06:39:44.942Z,79.52
2022-08-02T06:42:15.403Z,79.50
2022-08-02T06:44:47.859Z,79.39
2022-08-02T06:47:18.091Z,79.06
2022-08-02T06:49:51.752Z,78.86
2022-08-02T06:52:27.784Z,78.68
2022-08-02T06:55:00.549Z,78.43
2022-08-02T06:57:29.780Z,77.01
2022-08-02T07:00:01.060Z,76.40
2022-08-02T07:02:30.431Z,76.82
2022-08-02T07:04:59.037Z,76.37
2022-08-02T07:07:28.124Z,76.05
2022-08-02T07:10:00.724Z,75.01
2022-08-02T07:12:30.998Z,74.97
2022-08-02T07:15:04.525Z,74.18
2022-08-02T07:17:32.798Z,72.88
2022-08-02T07:20:01.252Z,73.16
2022-08-02T07:22:29.654Z,73.14
2022-08-02T07:24:59.268Z,70.95
2022-08-02T07:27:28.338Z,67.10
2022-08-02T07:29:56.918Z,66.39
2022-08-02T07:32:29.437Z,66.86
2022-08-02T07:34:58.546Z,65.14
2022-08-02T07:37:52.851Z,66.85
2022-08-02T07:40:20.059Z,67.00
2022-08-02T07:42:57.876Z,66.62
2022-08-02T07:45:28.047Z,66.56
2022-08-02T07:47:57.088Z,66.41
2022-08-02T07:50:25.417Z,66.14
2022-08-02T07:52:57.173Z,67.33
2022-08-02T07:55:40.174Z,67.68
2022-08-02T07:58:12.707Z,67.21
2022-08-02T08:00:43.363Z,67.60
2022-08-02T08:03:11.697Z,67.49
2022-08-02T08:05:39.907Z,67.85
2022-08-02T08:08:08.837Z,68.10
2022-08-02T08:10:40.664Z,68.44
2022-08-02T08:13:08.424Z,68.56
2022-08-02T08:15:36.183Z,68.47
2022-08-02T08:18:04.071Z,68.59
2022-08-02T08:20:33.260Z,68.46
2022-08-02T08:23:00.975Z,68.48
2022-08-02T08:25:28.670Z,68.51
2022-08-02T08:27:57.009Z,68.58
2022-08-02T08:30:25.068Z,68.78
2022-08-02T08:32:52.779Z,69.19
2022-08-02T08:35:20.834Z,68.92
2022-08-02T08:37:49.413Z,69.11
2022-08-02T08:40:19.313Z,69.27
2022-08-02T08:42:47.876Z,69.68
2022-08-02T08:45:16.505Z,69.70
2022-08-02T08:47:53.286Z,69.85
2022-08-02T08:50:30.812Z,69.91
2022-08-02T08:53:07.171Z,70.15
2022-08-02T08:55:36.550Z,70.36
2022-08-02T08:58:05.862Z,70.19
2022-08-02T09:00:36.644Z,70.07
2022-08-02T09:03:06.051Z,70.25
2022-08-02T09:05:38.788Z,70.66
2022-08-02T09:08:06.754Z,70.60
2022-08-02T09:10:48.471Z,70.72
2022-08-02T09:13:45.458Z,70.81
2022-08-02T09:16:14.966Z,70.96
2022-08-02T09:18:45.561Z,71.15
2022-08-02T09:21:15.858Z,71.43
2022-08-02T09:23:46.366Z,71.39
2022-08-02T09:26:17.196Z,71.43
2022-08-02T09:28:47.610Z,71.50
2022-08-02T09:31:18.427Z,71.67
2022-08-02T09:33:52.712Z,71.79
2022-08-02T09:36:21.575Z,71.84
2022-08-02T09:38:56.199Z,71.94
2022-08-02T09:41:26.382Z,72.25
2022-08-02T09:44:04.049Z,72.56
2022-08-02T09:46:39.480Z,72.45
2022-08-02T09:49:11.576Z,72.16
2022-08-02T09:51:45.345Z,72.16
2022-08-02T09:54:18.604Z,72.54
2022-08-02T09:56:51.387Z,72.66
2022-08-02T09:59:21.106Z,72.59
2022-08-02T10:01:51.100Z,72.65
2022-08-02T10:04:33.859Z,73.01
2022-08-02T10:07:04.901Z,72.72
2022-08-02T10:09:33.595Z,72.67
2022-08-02T10:12:01.838Z,72.73
2022-08-02T10:14:33.443Z,73.04
2022-08-02T10:17:01.519Z,72.88
2022-08-02T10:20:00.507Z,72.70
2022-08-02T10:22:19.845Z,72.83
2022-08-02T10:24:48.949Z,72.80
2022-08-02T10:27:21.528Z,72.72
2022-08-02T10:29:55.301Z,72.71
2022-08-02T10:32:37.664Z,72.41
2022-08-02T10:35:18.788Z,72.55
2022-08-02T10:38:01.215Z,72.41
2022-08-02T10:40:53.055Z,72.08
2022-08-02T10:43:32.999Z,72.10
2022-08-02T10:46:22.623Z,72.06
2022-08-02T10:52:07.282Z,72.30
2022-08-02T10:54:49.740Z,71.99
2022-08-02T10:57:26.887Z,72.00
2022-08-02T11:00:04.133Z,72.05
2022-08-02T11:02:39.456Z,71.95
2022-08-02T11:05:28.632Z,71.87
2022-08-02T11:08:19.541Z,71.75
2022-08-02T11:10:47.637Z,71.77
2022-08-02T11:13:17.493Z,71.63
2022-08-02T11:16:03.620Z,71.47
2022-08-02T11:19:03.671Z,71.21
2022-08-02T11:21:36.375Z,70.75
2022-08-02T11:24:29.641Z,70.37
2022-08-02T11:27:00.080Z,70.78
2022-08-02T11:29:41.147Z,71.26
2022-08-02T11:32:19.530Z,70.86
2022-08-02T11:34:52.489Z,70.85
2022-08-02T11:37:30.206Z,70.95
2022-08-02T11:39:58.279Z,70.86
2022-08-02T11:42:38.051Z,70.64
2022-08-02T11:45:08.476Z,70.51
2022-08-02T11:47:51.229Z,70.22
2022-08-02T11:50:29.883Z,70.28
2022-08-02T11:52:58.442Z,70.45
2022-08-02T11:55:31.090Z,70.15
2022-08-02T11:58:06.077Z,70.17
2022-08-02T12:00:35.500Z,70.27
2022-08-02T12:03:03.359Z,70.38
2022-08-02T12:06:04.674Z,70.54
2022-08-02T12:08:25.140Z,70.49
2022-08-02T12:10:53.443Z,70.38
2022-08-02T12:13:21.308Z,70.30
2022-08-02T12:15:49.195Z,70.65
2022-08-02T12:18:40.501Z,70.65
2022-08-02T12:21:26.454Z,70.76
2022-08-02T12:24:00.509Z,70.88
2022-08-02T12:26:30.141Z,70.82
2022-08-02T12:28:59.474Z,70.68
2022-08-02T12:31:56.828Z,70.54
2022-08-02T12:34:31.372Z,70.23
2022-08-02T12:37:07.151Z,70.24
2022-08-02T12:39:42.651Z,70.20
2022-08-02T12:42:13.949Z,70.33
2022-08-02T12:45:01.295Z,70.15
2022-08-02T12:47:35.682Z,69.86
2022-08-02T12:50:16.512Z,69.42
2022-08-02T12:52:46.882Z,69.44
2022-08-02T12:55:21.171Z,69.37
2022-08-02T12:58:02.579Z,68.32
2022-08-02T13:00:37.009Z,68.32
2022-08-02T13:03:11.217Z,68.30
2022-08-02T13:05:56.878Z,68.04
2022-08-02T13:08:25.713Z,68.56
2022-08-02T13:10:53.459Z,68.31
2022-08-02T13:13:21.150Z,68.21
2022-08-02T13:15:51.163Z,68.19
2022-08-02T13:18:19.260Z,67.65
2022-08-02T13:20:46.988Z,67.60
2022-08-02T13:23:21.653Z,67.59
2022-08-02T13:25:52.543Z,67.54
2022-08-02T13:28:21.436Z,67.68
2022-08-02T13:30:50.137Z,67.73
2022-08-02T13:33:18.322Z,67.71
2022-08-02T13:35:47.294Z,68.18
2022-08-02T13:38:15.059Z,68.63
2022-08-02T13:41:05.263Z,68.54
2022-08-02T13:43:52.070Z,68.41
2022-08-02T13:46:29.399Z,68.02
2022-08-02T13:48:57.601Z,68.27
2022-08-02T13:51:25.409Z,68.26
2022-08-02T13:53:53.714Z,68.17
2022-08-02T13:56:35.460Z,68.07
2022-08-02T13:59:21.846Z,67.31
2022-08-02T14:01:53.964Z,67.65
2022-08-02T14:04:22.493Z,67.55
2022-08-02T14:06:50.731Z,67.23
2022-08-02T14:09:18.861Z,66.89
2022-08-02T14:11:47.086Z,66.82
2022-08-02T14:14:16.862Z,67.02
2022-08-02T14:16:45.696Z,67.02
2022-08-02T14:19:16.032Z,66.39
2022-08-02T14:21:46.896Z,66.34
2022-08-02T14:24:21.273Z,66.49
2022-08-02T14:26:49.317Z,66.40
2022-08-02T14:29:17.963Z,66.12
2022-08-02T14:31:45.838Z,66.02
2022-08-02T14:34:13.916Z,65.75
2022-08-02T14:36:41.737Z,65.87
2022-08-02T14:39:10.134Z,65.94
2022-08-02T14:41:58.851Z,65.93
2022-08-02T14:44:25.598Z,65.69
2022-08-02T14:46:53.376Z,64.97
2022-08-02T14:49:26.045Z,64.46
2022-08-02T14:51:55.390Z,64.11
2022-08-02T14:54:30.058Z,64.42
2022-08-02T14:57:00.319Z,64.02
2022-08-02T14:59:28.890Z,64.10
2022-08-02T15:01:57.203Z,63.93
2022-08-02T15:04:25.276Z,63.63
2022-08-02T15:06:53.624Z,63.39
2022-08-02T15:09:21.504Z,63.61
2022-08-02T15:11:49.873Z,63.34
2022-08-02T15:14:22.114Z,63.20
2022-08-02T15:16:58.042Z,63.15
2022-08-02T15:19:55.908Z,63.42
2022-08-02T15:22:19.367Z,63.75
2022-08-02T15:24:48.027Z,64.11
2022-08-02T15:27:17.021Z,64.46
2022-08-02T15:29:46.012Z,64.79
2022-08-02T15:32:17.463Z,65.04
2022-08-02T15:34:46.218Z,65.33
2022-08-02T15:37:13.918Z,65.57
2022-08-02T15:39:41.703Z,65.67
2022-08-02T15:42:10.056Z,65.63
2022-08-02T15:44:38.031Z,65.74
2022-08-02T15:47:07.061Z,65.82
2022-08-02T15:49:37.057Z,65.82
2022-08-02T15:52:11.006Z,65.64
2022-08-02T15:54:39.091Z,65.65
2022-08-02T15:57:06.909Z,65.87
2022-08-02T15:59:34.756Z,66.09
2022-08-02T16:02:03.396Z,66.26
2022-08-02T16:04:32.949Z,66.38
2022-08-02T16:07:01.512Z,66.51
2022-08-02T16:09:29.726Z,66.56
2022-08-02T16:11:57.577Z,66.54
2022-08-02T16:14:25.540Z,66.60
2022-08-02T16:16:53.670Z,66.69
2022-08-02T16:19:46.311Z,66.54
2022-08-02T16:22:11.284Z,66.67
2022-08-02T16:24:39.689Z,66.83
2022-08-02T16:27:08.561Z,66.71
2022-08-02T16:29:37.547Z,66.83
2022-08-02T16:32:06.021Z,66.89
2022-08-02T16:34:56.774Z,66.99
2022-08-02T16:37:21.991Z,67.17
2022-08-02T16:39:49.717Z,67.16
2022-08-02T16:42:25.663Z,67.24
2022-08-02T16:44:54.860Z,67.50
2022-08-02T16:47:42.760Z,67.58
2022-08-02T16:50:11.127Z,67.70
2022-08-02T16:52:39.547Z,67.68
2022-08-02T16:55:10.866Z,67.86
2022-08-02T16:57:45.401Z,68.07
2022-08-02T17:00:18.475Z,68.27
2022-08-02T17:02:47.009Z,68.35
2022-08-02T17:05:15.418Z,68.50
2022-08-02T17:08:07.424Z,68.70
2022-08-02T17:10:34.372Z,68.94
2022-08-02T17:13:11.328Z,69.07
2022-08-02T17:16:08.228Z,69.05
2022-08-02T17:18:29.830Z,69.17
2022-08-02T17:20:58.251Z,69.20
2022-08-02T17:24:03.873Z,69.22
2022-08-02T17:26:14.071Z,69.43
2022-08-02T17:29:07.005Z,69.39
2022-08-02T17:31:42.884Z,69.55
2022-08-02T17:34:12.512Z,69.59
2022-08-02T17:36:40.310Z,69.62
2022-08-02T17:39:08.039Z,69.63
2022-08-02T17:41:39.746Z,69.76
2022-08-02T17:44:37.524Z,69.88
2022-08-02T17:47:07.379Z,69.94
2022-08-02T17:49:43.939Z,70.01
2022-08-02T17:52:49.395Z,70.14
2022-08-02T17:55:02.310Z,70.33
2022-08-02T17:57:57.552Z,70.47
2022-08-02T18:00:20.185Z,70.61
2022-08-02T18:02:50.563Z,70.58
2022-08-02T18:05:21.002Z,70.70
2022-08-02T18:07:53.031Z,70.76
2022-08-02T18:10:24.687Z,70.90
2022-08-02T18:12:54.382Z,70.98
2022-08-02T18:15:23.957Z,71.21
2022-08-02T18:17:51.733Z,71.36
2022-08-02T18:20:22.611Z,71.55
2022-08-02T18:22:55.600Z,71.53
2022-08-02T18:25:37.451Z,71.69
2022-08-02T18:28:11.885Z,71.92
2022-08-02T18:30:41.114Z,72.07
2022-08-02T18:33:55.766Z,72.35
2022-08-02T18:35:56.607Z,72.67
2022-08-02T18:38:27.817Z,72.71
2022-08-02T18:40:55.803Z,72.79
2022-08-02T18:43:25.293Z,73.05
2022-08-02T18:46:06.680Z,73.33
2022-08-02T18:48:46.468Z,73.49
2022-08-02T18:51:15.682Z,73.60
2022-08-02T18:53:43.540Z,73.73
2022-08-02T18:56:19.857Z,73.76
2022-08-02T18:58:55.984Z,73.93
2022-08-02T19:01:31.799Z,73.99
2022-08-02T19:04:02.688Z,74.03
2022-08-02T19:06:30.823Z,74.09
2022-08-02T19:09:05.250Z,74.20
2022-08-02T19:11:38.544Z,74.48
2022-08-02T19:14:09.298Z,74.60
2022-08-02T19:16:38.131Z,74.69
2022-08-02T19:19:06.615Z,74.78
2022-08-02T19:22:17.277Z,74.84
2022-08-02T19:24:22.867Z,75.15
2022-08-02T19:26:52.656Z,75.34
2022-08-02T19:32:42.563Z,76.03
2022-08-02T19:35:00.233Z,76.33
2022-08-02T19:37:37.008Z,76.58
2022-08-02T19:40:07.983Z,76.83
2022-08-02T19:43:13.252Z,77.17
2022-08-02T19:45:50.339Z,77.46
2022-08-02T19:48:14.903Z,77.50
2022-08-02T19:50:44.235Z,77.45
2022-08-02T19:53:18.562Z,77.55
2022-08-02T19:55:58.788Z,77.71
2022-08-02T19:58:30.842Z,77.89
2022-08-02T20:01:00.267Z,77.98
2022-08-02T20:03:51.563Z,78.16
2022-08-02T20:06:29.287Z,78.26
2022-08-02T20:08:59.362Z,78.36
2022-08-02T20:11:35.021Z,78.43
2022-08-02T20:14:07.560Z,78.49
2022-08-02T20:16:36.381Z,78.54
2022-08-02T20:19:07.772Z,78.57
2022-08-02T20:21:37.851Z,78.66
2022-08-02T20:24:10.859Z,78.78
2022-08-02T20:26:47.471Z,79.02
2022-08-02T20:29:17.440Z,79.36
2022-08-02T20:32:05.873Z,79.67
2022-08-02T20:34:36.362Z,79.75
2022-08-02T20:37:59.979Z,79.65
2022-08-02T20:39:53.755Z,80.04
2022-08-02T20:42:22.585Z,80.12
2022-08-02T20:44:55.682Z,80.24
2022-08-02T20:47:27.772Z,80.38
2022-08-02T20:50:15.398Z,80.43
2022-08-02T20:52:44.997Z,80.55
2022-08-02T20:55:16.906Z,80.56
2022-08-02T20:57:49.081Z,80.56
2022-08-02T21:00:28.920Z,80.57
2022-08-02T21:02:56.664Z,80.69
2022-08-02T21:05:27.014Z,80.38
2022-08-02T21:08:14.738Z,80.30
2022-08-02T21:10:50.607Z,80.18
2022-08-02T21:13:22.915Z,80.19
2022-08-02T21:15:53.449Z,80.11
2022-08-02T21:18:28.855Z,80.00
2022-08-02T21:21:09.600Z,79.96
2022-08-02T21:23:38.487Z,79.89
2022-08-02T21:26:28.543Z,79.92
2022-08-02T21:29:03.816Z,79.95
2022-08-02T21:31:33.445Z,79.94
2022-08-02T21:34:26.575Z,79.95
2022-08-02T21:36:53.383Z,79.92
2022-08-02T21:39:21.167Z,79.78
2022-08-02T21:41:49.512Z,79.76
2022-08-02T21:44:20.011Z,79.72
2022-08-02T21:46:50.242Z,79.72
2022-08-02T21:49:20.214Z,79.70
2022-08-02T21:51:50.242Z,79.65
2022-08-02T21:54:20.821Z,79.62
2022-08-02T21:56:53.389Z,79.66
2022-08-02T21:59:26.045Z,79.64
2022-08-02T22:01:57.888Z,79.67
2022-08-02T22:04:26.970Z,79.75
2022-08-02T22:06:55.645Z,79.71
2022-08-02T22:09:43.122Z,79.77
2022-08-02T22:12:18.359Z,79.91
2022-08-02T22:14:53.957Z,79.79
2022-08-02T22:17:51.271Z,80.01
2022-08-02T22:20:20.101Z,80.01
2022-08-02T22:22:50.415Z,79.93
2022-08-02T22:25:26.844Z,79.87
2022-08-02T22:28:37.714Z,79.89
2022-08-02T22:30:54.708Z,79.92
2022-08-02T22:33:42.214Z,79.95
2022-08-02T22:36:11.461Z,79.95
2022-08-02T22:38:44.358Z,79.94
2022-08-02T22:41:13.844Z,80.03
2022-08-02T22:43:42.617Z,80.07
2022-08-02T22:46:15.654Z,80.14
2022-08-02T22:48:45.656Z,80.26
2022-08-02T22:51:14.034Z,80.33
2022-08-02T22:53:42.661Z,80.40
2022-08-02T22:56:11.491Z,80.47
2022-08-02T22:58:48.175Z,75.56
2022-08-02T22:59:11.540Z,80.58
2022-08-02T23:01:27.224Z,80.70
2022-08-02T23:03:55.000Z,80.76
2022-08-02T23:06:23.048Z,81.05
2022-08-02T23:08:50.858Z,81.11
2022-08-02T23:11:18.700Z,81.18
2022-08-02T23:13:46.510Z,81.27
2022-08-02T23:16:37.706Z,81.41
2022-08-02T23:19:24.271Z,81.49
2022-08-02T23:22:02.435Z,81.82
2022-08-02T23:24:33.522Z,82.00
2022-08-02T23:27:01.587Z,81.98
2022-08-02T23:29:29.452Z,81.93
2022-08-02T23:31:57.278Z,81.85
2022-08-02T23:34:26.903Z,81.88
2022-08-02T23:36:54.592Z,81.87
2022-08-02T23:39:23.638Z,81.75
2022-08-02T23:41:55.106Z,81.65
2022-08-02T23:44:24.777Z,81.99
2022-08-02T23:46:53.609Z,82.09
2022-08-02T23:49:22.611Z,82.24
2022-08-02T23:51:51.563Z,82.12
2022-08-02T23:54:20.366Z,82.04
2022-08-02T23:56:48.162Z,82.48
2022-08-02T23:59:16.504Z,82.69
